Time;durP1;ratioP1;P1;durP2;ratioP2;P2;SDS_P1;SDS_P2;PMS_P1;PMS_P2;Temp;Humidity;BMP_temperature;BMP_pressure;BME280_temperature;BME280_humidity;BME280_pressure;Samples;Min_cycle;Max_cycle;Signal;HPM_P1;HPM_P2
2022/03/06 00:02:14;;;;;;;35.33;17.70;;;2.00;99.90;;;;;;5092977;28;20042;-76
2022/03/06 00:04:40;;;;;;;41.45;17.63;;;1.90;99.90;;;;;;5093679;28;20051;-77
2022/03/06 00:07:05;;;;;;;37.85;16.50;;;1.90;99.90;;;;;;5093833;28;20024;-76
2022/03/06 00:09:31;;;;;;;37.72;17.77;;;1.90;99.90;;;;;;5092674;28;20475;-76
2022/03/06 00:11:57;;;;;;;43.83;18.55;;;1.80;99.90;;;;;;5093841;28;20074;-76
2022/03/06 00:14:22;;;;;;;40.45;19.20;;;1.80;99.90;;;;;;5093559;28;20391;-76
2022/03/06 00:16:48;;;;;;;41.05;17.48;;;1.70;99.90;;;;;;5093027;28;20447;-76
2022/03/06 00:19:13;;;;;;;37.67;17.55;;;1.60;99.90;;;;;;5093766;28;20020;-76
2022/03/06 00:21:39;;;;;;;38.80;17.45;;;1.70;99.90;;;;;;5093674;28;20024;-76
2022/03/06 00:24:06;;;;;;;39.35;18.15;;;1.70;99.90;;;;;;5092806;28;20433;-76
2022/03/06 00:26:32;;;;;;;40.72;17.88;;;1.70;99.90;;;;;;5093274;28;20466;-76
2022/03/06 00:28:58;;;;;;;40.38;18.88;;;1.70;99.90;;;;;;5093451;28;20020;-76
2022/03/06 00:31:24;;;;;;;36.72;16.33;;;1.70;99.90;;;;;;5092345;28;20511;-76
2022/03/06 00:33:50;;;;;;;38.00;16.65;;;1.60;99.90;;;;;;5093186;28;20024;-76
2022/03/06 00:36:16;;;;;;;43.03;18.70;;;1.60;99.90;;;;;;5092865;28;20020;-76
2022/03/06 00:38:42;;;;;;;39.78;19.30;;;1.60;99.90;;;;;;5092367;28;20111;-76
2022/03/06 00:41:07;;;;;;;34.40;16.88;;;1.50;99.90;;;;;;5092920;28;20032;-76
2022/03/06 00:43:33;;;;;;;35.17;18.20;;;1.50;99.90;;;;;;5093288;28;20024;-75
2022/03/06 00:45:58;;;;;;;36.03;16.98;;;1.40;99.90;;;;;;5092123;28;20070;-75
2022/03/06 00:48:24;;;;;;;35.97;17.77;;;1.50;99.90;;;;;;5092603;28;20115;-75
2022/03/06 00:50:53;;;;;;;28.85;14.90;;;1.40;99.90;;;;;;5092904;28;20043;-75
2022/03/06 00:53:18;;;;;;;38.88;17.58;;;1.40;99.90;;;;;;5090631;28;20020;-76
2022/03/06 00:55:44;;;;;;;30.15;16.30;;;1.40;99.90;;;;;;5092472;28;20075;-76
2022/03/06 00:58:10;;;;;;;34.67;16.50;;;1.30;99.90;;;;;;5092716;28;20020;-76
2022/03/06 01:00:39;;;;;;;34.00;16.63;;;1.30;99.90;;;;;;5092026;28;20111;-76
2022/03/06 01:03:12;;;;;;;33.53;16.85;;;1.30;99.90;;;;;;5092397;28;20526;-77
2022/03/06 01:05:37;;;;;;;36.80;16.40;;;1.30;99.90;;;;;;5091598;28;20135;-76
2022/03/06 01:08:05;;;;;;;37.88;18.58;;;1.30;99.90;;;;;;5092633;28;20104;-76
2022/03/06 01:10:31;;;;;;;36.08;17.00;;;1.20;99.90;;;;;;5092257;28;20032;-76
2022/03/06 01:12:58;;;;;;;34.45;15.77;;;1.20;99.90;;;;;;5091947;28;20074;-75
2022/03/06 01:15:24;;;;;;;34.78;17.13;;;1.20;99.90;;;;;;5092289;28;20020;-76
2022/03/06 01:17:49;;;;;;;34.63;15.90;;;1.20;99.90;;;;;;5092454;28;20479;-76
2022/03/06 01:20:17;;;;;;;31.85;16.00;;;1.20;99.90;;;;;;5091374;28;20032;-76
2022/03/06 01:22:43;;;;;;;34.78;15.98;;;1.30;99.90;;;;;;5092651;28;20024;-75
2022/03/06 01:25:09;;;;;;;33.55;15.20;;;1.20;99.90;;;;;;5092196;28;20050;-76
2022/03/06 01:27:37;;;;;;;30.95;14.57;;;1.20;99.90;;;;;;5092030;28;20086;-76
2022/03/06 01:30:05;;;;;;;35.78;15.65;;;1.20;99.90;;;;;;5092095;28;20024;-76
2022/03/06 01:32:32;;;;;;;36.10;17.58;;;1.20;99.90;;;;;;5091804;28;20074;-76
2022/03/06 01:34:57;;;;;;;30.73;15.10;;;1.10;99.90;;;;;;5091538;28;20024;-76
2022/03/06 01:37:24;;;;;;;33.92;15.13;;;1.10;99.90;;;;;;5092018;28;20024;-76
2022/03/06 01:39:50;;;;;;;29.92;14.93;;;1.10;99.90;;;;;;5092130;28;20474;-76
2022/03/06 01:42:16;;;;;;;26.92;14.10;;;1.20;99.90;;;;;;5091181;28;20024;-75
2022/03/06 01:44:45;;;;;;;31.45;14.75;;;1.20;99.90;;;;;;5092167;28;20043;-75
2022/03/06 01:47:10;;;;;;;30.52;15.07;;;1.20;99.90;;;;;;5091912;28;20099;-76
2022/03/06 01:49:36;;;;;;;32.92;15.45;;;1.00;99.90;;;;;;5091290;28;20791;-75
2022/03/06 01:52:01;;;;;;;26.15;13.07;;;1.20;99.90;;;;;;5092101;28;20459;-76
2022/03/06 01:54:27;;;;;;;29.52;14.48;;;1.20;99.90;;;;;;5091583;28;20024;-75
2022/03/06 01:56:53;;;;;;;29.48;15.27;;;1.10;99.90;;;;;;5091258;28;20040;-76
2022/03/06 01:59:18;;;;;;;34.17;15.60;;;1.10;99.90;;;;;;5091639;28;20099;-75
2022/03/06 02:01:44;;;;;;;30.00;14.77;;;1.10;99.90;;;;;;5091153;28;20055;-75
2022/03/06 02:04:09;;;;;;;28.83;14.25;;;1.20;99.90;;;;;;5091331;28;20052;-76
2022/03/06 02:06:37;;;;;;;27.00;12.95;;;1.20;99.90;;;;;;5092135;28;20024;-75
2022/03/06 02:09:03;;;;;;;32.72;14.77;;;1.20;99.90;;;;;;5091482;28;20024;-74
2022/03/06 02:11:28;;;;;;;26.00;13.45;;;1.20;99.90;;;;;;5091503;28;20050;-76
2022/03/06 02:13:55;;;;;;;25.98;14.10;;;1.20;99.90;;;;;;5091897;28;20503;-76
2022/03/06 02:16:21;;;;;;;28.95;11.93;;;1.10;99.90;;;;;;5090727;28;20108;-76
2022/03/06 02:18:46;;;;;;;26.65;13.68;;;1.20;99.90;;;;;;5094275;28;20048;-76
2022/03/06 02:21:14;;;;;;;37.75;14.68;;;1.30;99.90;;;;;;5095582;28;20103;-76
2022/03/06 02:23:40;;;;;;;26.73;13.07;;;1.20;99.90;;;;;;5095109;28;20020;-76
2022/03/06 02:26:07;;;;;;;24.98;13.93;;;1.30;99.90;;;;;;5095677;28;20077;-76
2022/03/06 02:28:34;;;;;;;27.20;13.30;;;1.30;99.90;;;;;;5095551;28;20028;-76
2022/03/06 02:31:00;;;;;;;26.73;13.80;;;1.20;99.90;;;;;;5094633;28;20036;-76
2022/03/06 02:33:25;;;;;;;25.63;13.63;;;1.20;99.90;;;;;;5095429;28;20169;-76
2022/03/06 02:35:51;;;;;;;25.45;14.25;;;1.20;99.90;;;;;;5095660;28;20028;-76
2022/03/06 02:38:18;;;;;;;27.08;13.38;;;1.20;99.90;;;;;;5094672;28;20024;-76
2022/03/06 02:40:43;;;;;;;24.77;13.43;;;1.20;99.90;;;;;;5095329;28;20027;-76
2022/03/06 02:43:11;;;;;;;24.02;12.85;;;1.30;99.90;;;;;;5095057;28;20382;-76
2022/03/06 02:45:39;;;;;;;21.27;12.23;;;1.30;99.90;;;;;;5094445;28;20047;-76
2022/03/06 02:48:05;;;;;;;24.17;12.70;;;1.30;99.90;;;;;;5095143;28;20120;-76
2022/03/06 02:50:34;;;;;;;22.15;12.45;;;1.20;99.90;;;;;;5095180;28;20403;-77
2022/03/06 02:53:03;;;;;;;22.02;13.10;;;1.20;99.90;;;;;;5094556;28;20505;-76
2022/03/06 02:55:28;;;;;;;22.00;12.45;;;1.20;99.90;;;;;;5095038;28;20031;-76
2022/03/06 02:57:54;;;;;;;23.95;11.70;;;1.20;99.90;;;;;;5094549;28;20020;-76
2022/03/06 03:00:22;;;;;;;21.42;12.10;;;1.10;99.90;;;;;;5094694;28;20052;-77
2022/03/06 03:02:49;;;;;;;22.23;11.48;;;1.10;99.90;;;;;;5094848;28;20107;-76
2022/03/06 03:05:15;;;;;;;24.20;13.15;;;1.10;99.90;;;;;;5094215;28;20427;-77
2022/03/06 03:07:42;;;;;;;21.85;11.93;;;1.10;99.90;;;;;;5094938;28;20036;-76
2022/03/06 03:10:10;;;;;;;24.58;12.90;;;1.10;99.90;;;;;;5094160;28;20040;-76
2022/03/06 03:12:36;;;;;;;23.80;12.40;;;1.00;99.90;;;;;;5093589;28;20083;-76
2022/03/06 03:15:03;;;;;;;20.25;12.52;;;1.00;99.90;;;;;;5094603;28;20070;-76
2022/03/06 03:17:29;;;;;;;22.98;11.77;;;1.00;99.90;;;;;;5094455;28;20064;-76
2022/03/06 03:19:54;;;;;;;20.45;12.10;;;1.00;99.90;;;;;;5094281;28;20497;-76
2022/03/06 03:22:20;;;;;;;23.67;11.48;;;0.90;99.90;;;;;;5094463;28;20077;-77
2022/03/06 03:24:45;;;;;;;25.17;11.82;;;1.00;99.90;;;;;;5094329;28;20528;-76
2022/03/06 03:27:11;;;;;;;20.73;11.90;;;0.90;99.90;;;;;;5093409;28;20035;-76
2022/03/06 03:29:36;;;;;;;18.65;11.82;;;0.90;99.90;;;;;;5093002;28;20025;-76
2022/03/06 03:32:02;;;;;;;17.83;11.65;;;0.90;99.90;;;;;;5083261;28;20063;-76
2022/03/06 03:34:28;;;;;;;20.20;12.27;;;1.00;99.90;;;;;;5073413;28;20025;-76
2022/03/06 03:36:53;;;;;;;22.98;11.30;;;0.90;99.90;;;;;;5074115;28;20020;-76
2022/03/06 03:39:19;;;;;;;18.20;11.50;;;0.90;99.90;;;;;;5073616;28;20064;-77
2022/03/06 03:41:45;;;;;;;21.02;11.60;;;0.80;99.90;;;;;;5072955;28;20073;-77
2022/03/06 03:44:10;;;;;;;22.40;12.38;;;0.80;99.90;;;;;;5073420;28;20017;-76
2022/03/06 03:46:36;;;;;;;22.02;12.48;;;0.80;99.90;;;;;;5073901;28;20028;-76
2022/03/06 03:49:01;;;;;;;22.75;11.93;;;0.80;99.90;;;;;;5073385;28;20033;-76
2022/03/06 03:51:27;;;;;;;20.67;12.57;;;0.80;99.90;;;;;;5073293;28;20119;-77
2022/03/06 03:53:52;;;;;;;22.40;11.52;;;0.70;99.90;;;;;;5073833;28;20108;-76
2022/03/06 03:56:21;;;;;;;20.70;12.15;;;0.70;99.90;;;;;;5072903;28;20023;-76
2022/03/06 03:58:46;;;;;;;20.38;12.35;;;0.70;99.90;;;;;;5073546;28;20031;-76
2022/03/06 04:01:12;;;;;;;22.88;13.15;;;0.60;99.90;;;;;;5072976;28;20396;-76
2022/03/06 04:03:37;;;;;;;15.65;9.73;;;0.70;99.90;;;;;;5073221;28;20499;-76
2022/03/06 04:06:03;;;;;;;23.77;12.38;;;0.60;99.90;;;;;;5073676;28;20031;-76
2022/03/06 04:08:28;;;;;;;22.38;12.30;;;0.60;99.90;;;;;;5072677;28;20027;-76
2022/03/06 04:10:56;;;;;;;24.40;12.63;;;0.70;99.90;;;;;;5073330;28;20476;-76
2022/03/06 04:13:23;;;;;;;20.65;11.85;;;0.60;99.90;;;;;;5073104;28;20040;-76
2022/03/06 04:15:48;;;;;;;29.83;12.60;;;0.50;99.90;;;;;;5072866;28;20021;-76
2022/03/06 04:18:14;;;;;;;23.88;13.55;;;0.50;99.90;;;;;;5073113;28;20024;-76
2022/03/06 04:20:39;;;;;;;23.27;12.55;;;0.50;99.90;;;;;;5073345;28;20028;-77
2022/03/06 04:23:05;;;;;;;19.92;12.93;;;0.50;99.90;;;;;;5072392;28;20025;-76
2022/03/06 04:25:30;;;;;;;26.02;13.15;;;0.60;99.90;;;;;;5072749;28;20031;-76
2022/03/06 04:27:56;;;;;;;22.73;12.85;;;0.50;99.90;;;;;;5072886;28;20074;-76
2022/03/06 04:30:22;;;;;;;28.73;14.25;;;0.50;99.90;;;;;;5071994;28;20065;-76
2022/03/06 04:32:47;;;;;;;24.52;12.65;;;0.40;99.90;;;;;;5073136;28;20033;-76
2022/03/06 04:35:13;;;;;;;23.25;13.27;;;0.50;99.90;;;;;;5072809;28;20016;-76
2022/03/06 04:37:38;;;;;;;26.92;13.07;;;0.40;99.90;;;;;;5072228;28;20379;-77
2022/03/06 04:40:05;;;;;;;23.20;14.05;;;0.30;99.90;;;;;;5073072;28;20414;-76
2022/03/06 04:42:31;;;;;;;21.80;13.75;;;0.20;99.90;;;;;;5072162;28;20395;-76
2022/03/06 04:44:56;;;;;;;23.10;14.18;;;0.20;99.90;;;;;;5071917;28;20028;-76
2022/03/06 04:47:22;;;;;;;21.73;13.88;;;0.20;99.90;;;;;;5072476;28;20043;-76
2022/03/06 04:49:48;;;;;;;21.63;13.82;;;0.30;99.90;;;;;;5072767;28;20021;-77
2022/03/06 04:52:13;;;;;;;23.45;14.02;;;0.30;99.90;;;;;;5071662;28;20502;-76
2022/03/06 04:54:39;;;;;;;21.05;13.43;;;0.30;99.90;;;;;;5072897;28;20425;-76
2022/03/06 04:57:04;;;;;;;25.42;16.10;;;0.20;99.90;;;;;;5072889;28;20024;-76
2022/03/06 04:59:30;;;;;;;23.15;14.35;;;0.10;99.90;;;;;;5071699;28;20642;-77
2022/03/06 05:01:56;;;;;;;22.30;13.45;;;0.20;99.90;;;;;;5072665;28;20025;-77
2022/03/06 05:04:22;;;;;;;25.27;15.05;;;0.10;99.90;;;;;;5071647;28;20052;-77
2022/03/06 05:06:48;;;;;;;23.35;15.13;;;0.10;99.90;;;;;;5071750;28;20024;-77
2022/03/06 05:09:13;;;;;;;23.23;14.70;;;0.10;99.90;;;;;;5072001;28;20493;-76
2022/03/06 05:11:39;;;;;;;29.40;16.65;;;0.20;99.90;;;;;;5071461;28;20040;-77
2022/03/06 05:14:04;;;;;;;29.83;14.70;;;0.20;99.90;;;;;;5072012;28;20017;-76
2022/03/06 05:16:30;;;;;;;22.73;14.10;;;0.20;99.90;;;;;;5072158;28;20029;-77
2022/03/06 05:18:56;;;;;;;26.35;16.25;;;0.20;99.90;;;;;;5071454;28;20108;-76
2022/03/06 05:21:22;;;;;;;26.42;14.85;;;0.20;99.90;;;;;;5071882;28;20032;-76
2022/03/06 05:23:47;;;;;;;26.77;15.20;;;0.20;99.90;;;;;;5072236;28;20516;-76
2022/03/06 05:26:13;;;;;;;25.00;15.20;;;0.10;99.90;;;;;;5071102;28;20471;-76
2022/03/06 05:28:41;;;;;;;29.90;14.65;;;0.10;99.90;;;;;;5072047;28;20043;-76
2022/03/06 05:31:07;;;;;;;23.88;14.57;;;0.10;99.90;;;;;;5071766;28;20576;-76
2022/03/06 05:33:32;;;;;;;25.63;14.45;;;0.00;99.90;;;;;;5071229;28;20040;-76
2022/03/06 05:35:58;;;;;;;27.58;15.60;;;0.00;99.90;;;;;;5071994;28;20025;-76
2022/03/06 05:38:23;;;;;;;24.65;14.23;;;0.00;99.90;;;;;;5071785;28;20016;-77
2022/03/06 05:40:49;;;;;;;26.45;15.85;;;-0.10;99.90;;;;;;5071246;28;20020;-76
2022/03/06 05:43:15;;;;;;;28.60;16.20;;;-0.10;99.90;;;;;;5071881;28;20021;-77
2022/03/06 05:45:40;;;;;;;29.98;15.65;;;-0.10;99.90;;;;;;5071910;28;20111;-76
2022/03/06 05:48:06;;;;;;;27.83;15.40;;;-0.10;99.90;;;;;;5071099;28;20021;-76
2022/03/06 05:50:32;;;;;;;29.67;15.43;;;-0.20;99.90;;;;;;5071693;28;20048;-76
2022/03/06 05:52:57;;;;;;;27.08;15.60;;;-0.20;99.90;;;;;;5072792;28;20039;-77
2022/03/06 05:55:23;;;;;;;23.92;15.90;;;-0.20;99.90;;;;;;5074793;28;20033;-77
2022/03/06 05:57:48;;;;;;;25.95;15.60;;;-0.20;99.90;;;;;;5076105;28;20028;-76
2022/03/06 06:00:17;;;;;;;21.08;13.75;;;-0.20;99.90;;;;;;5075637;28;20070;-75
2022/03/06 06:02:43;;;;;;;25.60;15.98;;;-0.20;99.90;;;;;;5074744;28;20111;-76
2022/03/06 06:05:09;;;;;;;28.45;15.55;;;-0.20;99.90;;;;;;5075360;28;20036;-75
2022/03/06 06:07:36;;;;;;;28.17;15.75;;;-0.20;99.90;;;;;;5075437;28;20502;-76
2022/03/06 06:10:03;;;;;;;28.08;15.57;;;-0.30;99.90;;;;;;5075070;28;20028;-75
2022/03/06 06:12:29;;;;;;;24.45;14.98;;;-0.20;99.90;;;;;;5075437;28;20036;-76
2022/03/06 06:14:54;;;;;;;28.58;15.63;;;-0.20;99.90;;;;;;5074619;28;20072;-75
2022/03/06 06:17:20;;;;;;;25.42;15.90;;;-0.30;99.90;;;;;;5075277;28;20020;-76
2022/03/06 06:19:45;;;;;;;28.25;15.80;;;-0.20;99.90;;;;;;5075707;28;20035;-76
2022/03/06 06:22:11;;;;;;;25.58;15.60;;;-0.10;99.90;;;;;;5074560;28;20060;-76
2022/03/06 06:24:37;;;;;;;27.60;15.15;;;-0.20;99.90;;;;;;5075307;28;20095;-76
2022/03/06 06:27:03;;;;;;;25.33;14.52;;;-0.10;99.90;;;;;;5075592;28;20020;-76
2022/03/06 06:29:29;;;;;;;25.10;15.70;;;-0.10;99.90;;;;;;5074346;28;20539;-76
2022/03/06 06:31:55;;;;;;;29.80;16.80;;;-0.10;99.90;;;;;;5075025;28;20124;-76
2022/03/06 06:34:21;;;;;;;27.10;16.17;;;-0.10;99.90;;;;;;5074641;28;20537;-76
2022/03/06 06:36:47;;;;;;;28.33;15.70;;;-0.20;99.90;;;;;;5074329;28;20379;-76
2022/03/06 06:39:13;;;;;;;22.23;14.75;;;-0.20;99.90;;;;;;5074791;28;20078;-76
2022/03/06 06:41:45;;;;;;;28.48;16.30;;;-0.20;99.90;;;;;;5075108;28;20028;-76
2022/03/06 06:44:11;;;;;;;22.40;14.50;;;0.50;99.90;;;;;;5074076;28;20566;-76
2022/03/06 06:46:36;;;;;;;22.85;15.20;;;-0.20;99.90;;;;;;5075213;28;20036;-75
2022/03/06 06:49:03;;;;;;;25.00;15.70;;;-0.10;99.90;;;;;;5075083;28;20077;-77
2022/03/06 06:51:29;;;;;;;24.67;15.30;;;0.00;99.90;;;;;;5073795;28;20036;-75
2022/03/06 06:53:54;;;;;;;21.48;14.50;;;0.10;99.90;;;;;;5075063;28;20021;-77
2022/03/06 06:56:20;;;;;;;24.40;14.73;;;0.10;99.90;;;;;;5074917;28;20035;-78
2022/03/06 06:58:46;;;;;;;28.40;15.50;;;0.10;99.90;;;;;;5073841;28;20033;-75
2022/03/06 07:01:11;;;;;;;24.58;14.43;;;0.10;99.90;;;;;;5074385;28;20055;-73
2022/03/06 07:03:37;;;;;;;25.88;14.90;;;0.10;99.90;;;;;;5073969;28;20055;-76
2022/03/06 07:06:03;;;;;;;25.67;14.57;;;0.10;99.90;;;;;;5074022;28;20021;-75
2022/03/06 07:08:29;;;;;;;20.63;13.90;;;0.10;99.90;;;;;;5093170;28;20036;-74
2022/03/06 07:10:55;;;;;;;24.88;13.98;;;0.20;99.90;;;;;;5093375;28;20030;-75
2022/03/06 07:13:20;;;;;;;20.38;11.30;;;0.30;99.90;;;;;;5091928;28;20489;-77
2022/03/06 07:15:46;;;;;;;22.88;14.45;;;0.30;99.90;;;;;;5092361;28;20770;-75
2022/03/06 07:18:12;;;;;;;25.10;15.07;;;0.40;99.90;;;;;;5092425;28;20019;-77
2022/03/06 07:20:37;;;;;;;25.23;15.02;;;0.40;99.90;;;;;;5093194;28;20016;-77
2022/03/06 07:23:03;;;;;;;27.95;15.52;;;0.50;99.90;;;;;;5093638;28;20421;-75
2022/03/06 07:25:28;;;;;;;26.10;13.98;;;0.60;99.90;;;;;;5092338;28;20035;-75
2022/03/06 07:27:54;;;;;;;21.45;14.07;;;0.70;99.90;;;;;;5093235;28;20027;-75
2022/03/06 07:30:21;;;;;;;21.00;14.07;;;0.70;99.90;;;;;;5093392;28;20020;-75
2022/03/06 07:32:48;;;;;;;22.13;15.38;;;0.70;99.90;;;;;;5092466;28;20082;-75
2022/03/06 07:35:15;;;;;;;19.10;13.30;;;0.70;99.90;;;;;;5092540;28;20065;-77
2022/03/06 07:37:41;;;;;;;20.75;14.15;;;0.90;99.90;;;;;;5093178;28;20122;-77
2022/03/06 07:40:09;;;;;;;26.05;13.48;;;0.90;99.90;;;;;;5092394;28;20021;-74
2022/03/06 07:42:34;;;;;;;22.83;13.38;;;0.90;99.90;;;;;;5092620;28;20024;-75
2022/03/06 07:45:00;;;;;;;20.38;13.77;;;1.00;99.90;;;;;;5092108;28;20033;-74
2022/03/06 07:47:26;;;;;;;20.30;13.45;;;1.10;99.90;;;;;;5092319;28;20418;-76
2022/03/06 07:49:51;;;;;;;22.40;14.40;;;1.10;99.90;;;;;;5092509;28;20034;-76
2022/03/06 07:52:17;;;;;;;19.70;13.13;;;1.20;99.90;;;;;;5093685;28;20047;-75
2022/03/06 07:54:42;;;;;;;22.92;13.20;;;1.20;99.90;;;;;;5093532;28;20111;-77
2022/03/06 07:57:08;;;;;;;22.52;12.57;;;1.30;99.90;;;;;;5093878;28;20028;-76
2022/03/06 07:59:35;;;;;;;25.13;13.38;;;1.30;99.90;;;;;;5094149;28;20103;-75
2022/03/06 08:02:00;;;;;;;17.48;12.50;;;1.50;99.90;;;;;;5093407;28;20484;-76
2022/03/06 08:04:26;;;;;;;17.90;12.38;;;1.50;99.90;;;;;;5093325;28;20163;-75
2022/03/06 08:06:53;;;;;;;15.77;11.65;;;1.50;99.90;;;;;;5094120;28;20028;-77
2022/03/06 08:09:19;;;;;;;18.45;12.63;;;1.60;99.90;;;;;;5092999;28;20103;-77
2022/03/06 08:11:44;;;;;;;22.33;13.30;;;1.60;99.90;;;;;;5093705;28;20068;-77
2022/03/06 08:14:10;;;;;;;15.85;10.68;;;1.70;99.90;;;;;;5093356;28;20488;-75
2022/03/06 08:16:37;;;;;;;18.35;12.45;;;1.80;99.90;;;;;;5091973;28;20032;-75
2022/03/06 08:19:02;;;;;;;18.00;12.30;;;1.80;99.90;;;;;;5093590;28;20016;-76
2022/03/06 08:21:28;;;;;;;20.67;11.02;;;1.90;99.90;;;;;;5092793;28;20020;-77
2022/03/06 08:23:54;;;;;;;16.83;10.98;;;2.00;99.90;;;;;;5090982;28;20024;-77
2022/03/06 08:26:19;;;;;;;19.45;12.38;;;2.00;99.90;;;;;;5076126;28;20486;-77
2022/03/06 08:28:46;;;;;;;15.07;10.85;;;2.10;99.90;;;;;;5098933;28;20024;-84
2022/03/06 08:31:11;;;;;;;16.10;10.77;;;2.10;99.90;;;;;;5085953;28;20089;-85
2022/03/06 08:33:37;;;;;;;11.90;9.27;;;2.20;99.90;;;;;;5082733;28;20034;-83
2022/03/06 08:36:03;;;;;;;16.02;10.60;;;2.20;99.90;;;;;;5080484;28;20028;-85
2022/03/06 08:38:29;;;;;;;14.07;9.90;;;2.30;99.90;;;;;;5083305;28;20028;-83
2022/03/06 08:40:54;;;;;;;14.45;8.80;;;2.40;99.90;;;;;;5092414;28;20012;-81
2022/03/06 08:43:20;;;;;;;12.23;8.95;;;2.40;99.90;;;;;;5089877;28;20016;-80
2022/03/06 08:45:46;;;;;;;13.40;8.73;;;2.50;99.90;;;;;;5093998;28;20073;-81
2022/03/06 08:48:12;;;;;;;14.20;9.02;;;2.50;99.90;;;;;;5093545;28;20047;-81
2022/03/06 08:50:37;;;;;;;16.80;9.15;;;2.60;99.90;;;;;;5093593;28;20407;-81
2022/03/06 08:53:03;;;;;;;11.98;8.23;;;2.70;99.90;;;;;;5094201;28;20036;-82
2022/03/06 08:55:29;;;;;;;12.48;8.50;;;2.70;99.90;;;;;;5093561;28;20024;-82
2022/03/06 08:57:54;;;;;;;11.25;7.68;;;2.80;99.90;;;;;;5090241;28;20024;-82
2022/03/06 09:00:20;;;;;;;9.52;7.15;;;2.90;99.90;;;;;;5075457;28;20039;-81
2022/03/06 09:02:46;;;;;;;9.32;6.68;;;3.00;99.90;;;;;;5077354;28;20021;-80
2022/03/06 09:05:12;;;;;;;10.52;7.45;;;3.00;99.90;;;;;;5076145;28;20047;-82
2022/03/06 09:07:37;;;;;;;13.90;7.90;;;3.10;99.90;;;;;;5075892;28;20103;-80
2022/03/06 09:10:04;;;;;;;13.63;7.30;;;3.20;99.90;;;;;;5075466;28;20112;-80
2022/03/06 09:12:30;;;;;;;10.10;6.70;;;3.20;99.90;;;;;;5072723;28;20488;-80
2022/03/06 09:14:56;;;;;;;10.38;5.80;;;3.20;99.90;;;;;;5072940;28;20029;-80
2022/03/06 09:17:22;;;;;;;9.93;5.95;;;3.40;99.90;;;;;;5073202;28;20070;-79
2022/03/06 09:19:48;;;;;;;5.80;5.18;;;3.40;99.90;;;;;;5079955;28;20016;-81
2022/03/06 09:22:14;;;;;;;9.23;5.55;;;3.40;99.90;;;;;;5104234;28;20035;-82
2022/03/06 09:24:39;;;;;;;6.85;4.97;;;3.50;99.90;;;;;;5097674;28;20034;-78
2022/03/06 09:27:05;;;;;;;5.70;5.13;;;3.60;99.90;;;;;;5092454;28;20034;-85
2022/03/06 09:29:30;;;;;;;12.95;6.45;;;3.60;99.90;;;;;;5094939;28;20041;-79
2022/03/06 09:31:56;;;;;;;9.35;5.15;;;3.70;99.90;;;;;;5102355;28;20454;-79
2022/03/06 09:34:22;;;;;;;9.85;5.18;;;3.80;99.90;;;;;;5107119;28;20020;-79
2022/03/06 09:36:47;;;;;;;6.78;4.28;;;3.90;99.90;;;;;;5092120;28;20028;-80
2022/03/06 09:39:13;;;;;;;8.45;5.95;;;3.90;99.90;;;;;;5093289;28;20025;-80
2022/03/06 09:41:39;;;;;;;7.28;4.82;;;4.00;99.90;;;;;;5098645;28;20446;-80
2022/03/06 09:44:08;;;;;;;11.07;5.70;;;4.00;99.90;;;;;;5096509;28;20044;-82
2022/03/06 09:46:34;;;;;;;6.25;5.03;;;4.10;99.90;;;;;;5099636;28;20028;-83
2022/03/06 09:49:02;;;;;;;10.48;5.30;;;4.20;99.90;;;;;;5080128;28;20027;-81
2022/03/06 09:51:49;;;;;;;7.90;5.10;;;4.20;99.90;;;;;;5081376;28;20072;-81
2022/03/06 09:54:16;;;;;;;4.97;4.47;;;4.30;99.90;;;;;;5078829;28;20016;-76
2022/03/06 09:56:44;;;;;;;5.63;4.80;;;4.30;99.90;;;;;;5092404;28;20016;-82
2022/03/06 09:59:10;;;;;;;5.60;4.78;;;4.30;99.90;;;;;;5096789;28;20024;-81
2022/03/06 10:01:36;;;;;;;11.70;5.45;;;4.40;99.90;;;;;;5082840;28;20353;-82
2022/03/06 10:04:21;;;;;;;6.70;4.70;;;4.40;99.90;;;;;;5076158;28;20510;-82
2022/03/06 10:07:07;;;;;;;7.45;4.82;;;4.50;99.90;;;;;;5087167;28;20028;-81
2022/03/06 10:09:55;;;;;;;5.65;4.50;;;4.10;99.90;;;;;;5088359;28;20028;-82
2022/03/06 10:12:31;;;;;;;9.15;4.70;;;4.60;99.90;;;;;;5079034;28;20055;-82
2022/03/06 10:15:01;;;;;;;5.60;5.00;;;4.60;99.90;;;;;;5082674;28;20023;-83
2022/03/06 10:17:28;;;;;;;7.90;4.60;;;4.70;99.90;;;;;;5084070;28;20052;-83
2022/03/06 10:20:01;;;;;;;6.63;4.30;;;4.70;99.90;;;;;;5076831;28;20029;-83
2022/03/06 10:22:30;;;;;;;5.53;4.45;;;4.80;99.90;;;;;;5079408;28;20041;-83
2022/03/06 10:24:58;;;;;;;7.78;4.93;;;4.80;99.90;;;;;;5081237;28;20131;-82
2022/03/06 10:27:57;;;;;;;6.75;5.40;;;4.90;99.90;;;;;;5080951;28;20024;-83
2022/03/06 10:30:34;;;;;;;9.38;4.18;;;5.00;99.90;;;;;;5077774;28;20364;-83
2022/03/06 10:33:02;;;;;;;7.22;4.45;;;5.10;99.90;;;;;;5086225;28;20484;-82
2022/03/06 10:35:36;;;;;;;6.72;4.55;;;5.10;99.90;;;;;;5079829;28;20432;-82
2022/03/06 10:38:23;;;;;;;5.05;4.55;;;5.10;99.90;;;;;;5083429;28;20526;-83
2022/03/06 10:40:50;;;;;;;5.30;3.35;;;5.10;99.90;;;;;;5085977;28;20620;-83
2022/03/06 10:43:21;;;;;;;11.48;4.25;;;5.10;99.90;;;;;;5082862;28;20082;-82
2022/03/06 10:45:48;;;;;;;5.05;4.28;;;5.10;99.90;;;;;;5082538;28;20042;-82
2022/03/06 10:48:14;;;;;;;6.95;4.50;;;5.20;99.90;;;;;;5079340;28;20070;-82
2022/03/06 10:50:40;;;;;;;8.45;4.57;;;5.20;99.90;;;;;;5084952;28;20034;-82
2022/03/06 10:53:25;;;;;;;8.15;4.88;;;5.30;99.90;;;;;;5088919;28;20389;-82
2022/03/06 10:55:51;;;;;;;5.72;3.60;;;5.30;99.90;;;;;;5084109;28;20024;-82
2022/03/06 10:58:20;;;;;;;6.90;4.80;;;5.30;99.90;;;;;;5086058;28;20021;-82
2022/03/06 11:00:47;;;;;;;6.68;4.78;;;5.30;99.90;;;;;;5085887;28;20024;-82
2022/03/06 11:03:13;;;;;;;6.45;4.10;;;5.30;99.90;;;;;;5083803;28;20036;-81
2022/03/06 11:05:46;;;;;;;7.50;4.38;;;5.30;99.90;;;;;;5087658;28;20077;-82
2022/03/06 11:08:16;;;;;;;5.85;4.45;;;5.30;99.90;;;;;;5086422;28;20039;-81
2022/03/06 11:10:43;;;;;;;4.90;4.22;;;5.40;99.90;;;;;;5081841;28;20029;-81
2022/03/06 11:13:14;;;;;;;6.03;4.75;;;5.30;99.90;;;;;;5085990;28;20115;-81
2022/03/06 11:15:42;;;;;;;6.25;4.28;;;5.40;99.90;;;;;;5080588;28;20025;-81
2022/03/06 11:18:08;;;;;;;6.88;4.50;;;5.50;99.90;;;;;;5084480;28;20506;-80
2022/03/06 11:20:36;;;;;;;5.10;4.28;;;5.50;99.90;;;;;;5088423;28;20012;-81
2022/03/06 11:23:34;;;;;;;6.50;3.92;;;5.60;99.90;;;;;;5083269;28;20157;-81
2022/03/06 11:26:15;;;;;;;5.18;4.38;;;5.60;99.90;;;;;;5047833;28;20079;-82
2022/03/06 11:28:59;;;;;;;;;;;5.60;99.90;;;;;;5084456;28;20022;-81
2022/03/06 11:31:28;;;;;;;7.30;4.85;;;5.50;99.90;;;;;;5080389;28;19919;-80
2022/03/06 11:33:56;;;;;;;4.93;4.13;;;5.60;99.90;;;;;;5080875;28;20108;-81
2022/03/06 11:36:25;;;;;;;6.97;4.32;;;5.60;99.90;;;;;;5086113;28;20631;-81
2022/03/06 11:38:52;;;;;;;8.55;4.72;;;5.60;99.90;;;;;;5087051;28;20055;-81
2022/03/06 11:41:18;;;;;;;6.90;3.78;;;5.70;99.90;;;;;;5087720;28;20085;-81
2022/03/06 11:43:59;;;;;;;6.60;5.30;;;5.70;98.40;;;;;;5105927;28;20028;-82
2022/03/06 11:46:25;;;;;;;;;;;5.80;99.50;;;;;;5114250;28;20011;-82
2022/03/06 11:48:50;;;;;;;7.72;5.82;;;5.90;98.50;;;;;;5123524;28;19904;-81
2022/03/06 11:51:23;;;;;;;6.93;5.28;;;6.00;98.30;;;;;;5097798;28;20028;-82
2022/03/06 11:53:57;;;;;;;5.50;5.00;;;6.00;97.70;;;;;;5095486;28;20158;-82
2022/03/06 11:56:35;;;;;;;6.28;5.68;;;6.10;99.00;;;;;;5102439;28;20016;-82
2022/03/06 11:59:01;;;;;;;7.03;4.65;;;6.20;97.30;;;;;;5102144;28;20024;-82
2022/03/06 12:01:33;;;;;;;7.20;4.93;;;6.10;96.60;;;;;;5095876;28;20044;-82
2022/03/06 12:04:10;;;;;;;5.97;5.40;;;6.10;96.90;;;;;;5089764;28;20503;-81
2022/03/06 12:06:41;;;;;;;8.10;5.43;;;6.20;97.00;;;;;;5107483;28;20131;-82
2022/03/06 12:09:17;;;;;;;;;;;6.20;97.30;;;;;;5100672;28;20056;-82
2022/03/06 12:11:43;;;;;;;5.90;5.20;;;6.20;96.00;;;;;;5100851;28;19957;-82
2022/03/06 12:14:14;;;;;;;6.50;4.97;;;6.30;96.10;;;;;;5102467;28;20026;-82
2022/03/06 12:17:02;;;;;;;10.82;6.65;;;6.40;95.40;;;;;;5109009;28;20044;-81
2022/03/06 12:19:42;;;;;;;7.35;5.63;;;6.30;96.30;;;;;;5102708;28;20390;-81
2022/03/06 12:22:22;;;;;;;8.40;5.75;;;6.40;94.70;;;;;;5097052;28;20024;-81
2022/03/06 12:25:16;;;;;;;6.72;6.00;;;6.40;94.50;;;;;;5091195;28;20034;-81
2022/03/06 12:28:03;;;;;;;6.40;5.72;;;6.50;94.20;;;;;;5088951;28;20060;-81
2022/03/06 12:30:35;;;;;;;6.72;5.90;;;6.50;95.50;;;;;;5091690;28;20028;-81
2022/03/06 12:33:30;;;;;;;9.13;5.53;;;6.50;95.80;;;;;;5093757;28;20036;-81
2022/03/06 12:36:14;;;;;;;7.88;6.40;;;6.60;94.40;;;;;;5092896;28;20049;-82
2022/03/06 12:38:41;;;;;;;7.65;6.28;;;6.70;94.60;;;;;;5093855;28;20024;-82
2022/03/06 12:41:07;;;;;;;7.25;6.53;;;6.80;95.60;;;;;;5093600;28;20100;-81
2022/03/06 12:43:32;;;;;;;8.85;5.80;;;6.80;93.30;;;;;;5092759;28;20166;-82
2022/03/06 12:45:59;;;;;;;8.05;6.75;;;6.80;92.60;;;;;;5093712;28;20488;-81